Mount Pleasant, TX

11:11 PM CST on December 17, 2014 (GMT -0600)
Union Hill Road at CR 4640 | Change Station
CLOSE
Current Station
Personal Weather Station
Location: Mount Pleasant, TX
Elevation: 425 ft
Nearby Weather Stations

Elev 425 ft 33.09 °N, 94.90 °W | Updated 5 seconds ago

Overcast
Overcast
40.0 °F
Feels Like 40 °F
N
3.0
Wind Variable Wind from NE
Gusts 5.0 mph

Today
High -- | Low -- °F
--% Chance of Precip.
Yesterday
High -- | Low -- °F
Precip. -- in
7:17 AM 5:15 PM
Waning Crescent, 17% visible
Pressure 30.23 in
Visibility 7.0 miles
Clouds Overcast 700 ft
Windchill 40 °F
Dew Point 39 °F
Humidity 95%
Rainfall 0.13 in
Snow Depth Not available.
UV 0 out of 12
Pollen 1.90 out of 12
Air Quality Not available.
Flu Activity Not available.
METAR KOSA 180455Z AUTO 03004KT 7SM OVC007 04/04 A3023 RMK AO1 P0004 T00440042

More Conditions Fewer Conditions

Pressure 30.23 in
Visibility 7.0 miles
Clouds Overcast 700 ft
Windchill 40 °F
Dew Point 39 °F
Humidity 95%
Rainfall 0.13 in
Snow Depth Not available.
UV 0 out of 12
Pollen 1.90 out of 12
Air Quality Not available.
Flu Activity Not available.
METAR KOSA 180455Z AUTO 03004KT 7SM OVC007 04/04 A3023 RMK AO1 P0004 T00440042

More Conditions Fewer Conditions

Nowcast | as of 10:51 PM CST on December 17, 2014

Look for areas of light to moderate rain showers to continue shifting east northeast across extreme eastern Texas...southeast Oklahoma...southwest Arkansas...and northwest Louisiana...during the next couple of hours. Additional scattered showers are also redeveloping over North Texas...and will eventually spread into portions of northeast Texas during the overnight hours. Rainfall amounts will range from several hundredths to around a tenth of an inch over the next couple of hours...with isolated amounts up to a quarter of an inch possible. This rainfall will eventually move into the El Dorado and Junction City Arkansas areas between 1115 and 1145 PM.

×

10-Day Weather Forecast

Almanac

Astronomy

Dec. 17, 2014 Rise Set
Actual Time
Civil Twilight
Nautical Twilight
Astronomical Twilight
Moon
Length of Visible Light
Length of Day
Tomorrow will be .
, % of the Moon is Illuminated

Today's Extremes

State Highs State Lows

Community

WunderPhotos

Upload Photos

1,778,887 photos uploaded!

WunderBlogs® & News

Nearby

Air Quality

  Air Quality AQ Index Pollutant
Not available.

Snow Depth

Station Depth Elevation

Earthquake Activity

City Distance Mag. Time & Date
Minimum magnitude displayed is 2.5.

Coastal Water Temperatures

Place Temperature

Nearby Weather Stations